sensor_id;sensor_type;location;lat;lon;timestamp;P1;durP1;ratioP1;P2;durP2;ratioP2
8564;SDS011;4320;51.498;6.556;2022-09-17T00:01:14;8.57;;;2.38;;
8564;SDS011;4320;51.498;6.556;2022-09-17T00:03:41;8.55;;;2.10;;
8564;SDS011;4320;51.498;6.556;2022-09-17T00:06:08;8.57;;;1.90;;
8564;SDS011;4320;51.498;6.556;2022-09-17T00:08:36;8.90;;;2.22;;
8564;SDS011;4320;51.498;6.556;2022-09-17T00:11:11;10.68;;;2.38;;
8564;SDS011;4320;51.498;6.556;2022-09-17T00:13:39;6.05;;;1.90;;
8564;SDS011;4320;51.498;6.556;2022-09-17T00:16:05;7.43;;;2.53;;
8564;SDS011;4320;51.498;6.556;2022-09-17T00:18:31;3.47;;;1.63;;
8564;SDS011;4320;51.498;6.556;2022-09-17T00:20:57;5.55;;;2.30;;
8564;SDS011;4320;51.498;6.556;2022-09-17T00:23:23;8.27;;;2.10;;
8564;SDS011;4320;51.498;6.556;2022-09-17T00:25:49;10.38;;;2.50;;
8564;SDS011;4320;51.498;6.556;2022-09-17T00:28:14;6.30;;;1.95;;
8564;SDS011;4320;51.498;6.556;2022-09-17T00:30:40;6.82;;;2.05;;
8564;SDS011;4320;51.498;6.556;2022-09-17T00:33:08;5.97;;;2.38;;
8564;SDS011;4320;51.498;6.556;2022-09-17T00:35:36;5.07;;;1.92;;
8564;SDS011;4320;51.498;6.556;2022-09-17T00:38:02;8.50;;;2.78;;
8564;SDS011;4320;51.498;6.556;2022-09-17T00:40:28;9.68;;;2.80;;
8564;SDS011;4320;51.498;6.556;2022-09-17T00:42:53;6.28;;;2.30;;
8564;SDS011;4320;51.498;6.556;2022-09-17T00:45:19;6.18;;;2.53;;
8564;SDS011;4320;51.498;6.556;2022-09-17T00:48:01;6.35;;;2.28;;
8564;SDS011;4320;51.498;6.556;2022-09-17T00:53:06;7.10;;;2.83;;
8564;SDS011;4320;51.498;6.556;2022-09-17T00:55:39;6.50;;;2.38;;
8564;SDS011;4320;51.498;6.556;2022-09-17T00:58:08;5.60;;;1.83;;
8564;SDS011;4320;51.498;6.556;2022-09-17T01:00:35;9.98;;;2.53;;
8564;SDS011;4320;51.498;6.556;2022-09-17T01:03:01;8.15;;;2.30;;
8564;SDS011;4320;51.498;6.556;2022-09-17T01:05:39;9.63;;;2.53;;
8564;SDS011;4320;51.498;6.556;2022-09-17T01:08:27;7.25;;;2.10;;
8564;SDS011;4320;51.498;6.556;2022-09-17T01:22:15;8.60;;;2.38;;
8564;SDS011;4320;51.498;6.556;2022-09-17T01:28:13;10.35;;;2.47;;
8564;SDS011;4320;51.498;6.556;2022-09-17T01:42:19;13.75;;;2.83;;
8564;SDS011;4320;51.498;6.556;2022-09-17T01:50:17;7.75;;;2.33;;
8564;SDS011;4320;51.498;6.556;2022-09-17T01:52:48;12.93;;;3.22;;
8564;SDS011;4320;51.498;6.556;2022-09-17T01:55:17;8.73;;;2.45;;
8564;SDS011;4320;51.498;6.556;2022-09-17T01:57:52;8.10;;;2.67;;
8564;SDS011;4320;51.498;6.556;2022-09-17T02:00:25;9.32;;;2.88;;
8564;SDS011;4320;51.498;6.556;2022-09-17T02:03:02;6.32;;;2.42;;
8564;SDS011;4320;51.498;6.556;2022-09-17T02:05:36;15.95;;;2.70;;
8564;SDS011;4320;51.498;6.556;2022-09-17T02:08:07;10.32;;;2.65;;
8564;SDS011;4320;51.498;6.556;2022-09-17T02:11:06;6.82;;;2.13;;
8564;SDS011;4320;51.498;6.556;2022-09-17T02:13:41;7.57;;;2.92;;
8564;SDS011;4320;51.498;6.556;2022-09-17T02:16:12;10.43;;;2.33;;
8564;SDS011;4320;51.498;6.556;2022-09-17T02:21:42;8.02;;;2.38;;
8564;SDS011;4320;51.498;6.556;2022-09-17T02:24:12;9.32;;;2.33;;
8564;SDS011;4320;51.498;6.556;2022-09-17T02:27:03;9.30;;;1.88;;
8564;SDS011;4320;51.498;6.556;2022-09-17T02:29:39;10.02;;;2.47;;
8564;SDS011;4320;51.498;6.556;2022-09-17T02:32:07;9.52;;;2.10;;
8564;SDS011;4320;51.498;6.556;2022-09-17T02:34:34;10.60;;;2.50;;
8564;SDS011;4320;51.498;6.556;2022-09-17T02:37:00;12.43;;;2.60;;
8564;SDS011;4320;51.498;6.556;2022-09-17T02:39:27;12.75;;;2.45;;
8564;SDS011;4320;51.498;6.556;2022-09-17T02:41:57;8.57;;;2.40;;
8564;SDS011;4320;51.498;6.556;2022-09-17T02:50:25;9.20;;;2.25;;
8564;SDS011;4320;51.498;6.556;2022-09-17T02:53:21;9.02;;;2.53;;
8564;SDS011;4320;51.498;6.556;2022-09-17T02:56:01;16.05;;;2.72;;
8564;SDS011;4320;51.498;6.556;2022-09-17T03:01:33;14.13;;;2.72;;
8564;SDS011;4320;51.498;6.556;2022-09-17T03:04:05;12.48;;;2.60;;
8564;SDS011;4320;51.498;6.556;2022-09-17T03:06:34;7.20;;;1.88;;
8564;SDS011;4320;51.498;6.556;2022-09-17T03:09:00;12.30;;;2.42;;
8564;SDS011;4320;51.498;6.556;2022-09-17T03:11:26;8.20;;;2.60;;
8564;SDS011;4320;51.498;6.556;2022-09-17T03:13:51;8.88;;;2.30;;
8564;SDS011;4320;51.498;6.556;2022-09-17T03:16:17;7.50;;;2.03;;
8564;SDS011;4320;51.498;6.556;2022-09-17T03:18:42;11.15;;;2.40;;
8564;SDS011;4320;51.498;6.556;2022-09-17T03:21:08;6.72;;;2.15;;
8564;SDS011;4320;51.498;6.556;2022-09-17T03:23:34;7.28;;;2.35;;
8564;SDS011;4320;51.498;6.556;2022-09-17T03:26:00;7.72;;;1.80;;
8564;SDS011;4320;51.498;6.556;2022-09-17T03:28:25;11.85;;;2.35;;
8564;SDS011;4320;51.498;6.556;2022-09-17T03:30:51;16.67;;;2.83;;
8564;SDS011;4320;51.498;6.556;2022-09-17T03:33:17;8.57;;;2.40;;
8564;SDS011;4320;51.498;6.556;2022-09-17T03:35:44;9.23;;;2.05;;
8564;SDS011;4320;51.498;6.556;2022-09-17T03:38:10;8.00;;;1.95;;
8564;SDS011;4320;51.498;6.556;2022-09-17T03:40:36;10.85;;;2.78;;
8564;SDS011;4320;51.498;6.556;2022-09-17T03:43:02;11.40;;;2.63;;
8564;SDS011;4320;51.498;6.556;2022-09-17T03:45:28;10.73;;;2.33;;
8564;SDS011;4320;51.498;6.556;2022-09-17T03:47:54;7.43;;;2.17;;
8564;SDS011;4320;51.498;6.556;2022-09-17T03:50:20;15.13;;;2.65;;
8564;SDS011;4320;51.498;6.556;2022-09-17T03:52:46;8.60;;;2.28;;
8564;SDS011;4320;51.498;6.556;2022-09-17T03:55:12;7.68;;;2.10;;
8564;SDS011;4320;51.498;6.556;2022-09-17T03:57:37;11.00;;;2.35;;
8564;SDS011;4320;51.498;6.556;2022-09-17T04:00:03;8.63;;;2.63;;
8564;SDS011;4320;51.498;6.556;2022-09-17T04:02:29;6.78;;;2.03;;
8564;SDS011;4320;51.498;6.556;2022-09-17T04:04:55;6.68;;;2.33;;
8564;SDS011;4320;51.498;6.556;2022-09-17T04:07:21;9.00;;;2.60;;
8564;SDS011;4320;51.498;6.556;2022-09-17T04:09:46;6.68;;;2.42;;
8564;SDS011;4320;51.498;6.556;2022-09-17T04:12:12;8.82;;;2.40;;
8564;SDS011;4320;51.498;6.556;2022-09-17T04:14:38;12.13;;;2.50;;
8564;SDS011;4320;51.498;6.556;2022-09-17T04:17:03;11.20;;;2.50;;
8564;SDS011;4320;51.498;6.556;2022-09-17T04:19:29;6.57;;;2.17;;
8564;SDS011;4320;51.498;6.556;2022-09-17T04:21:54;14.63;;;2.72;;
8564;SDS011;4320;51.498;6.556;2022-09-17T04:24:20;7.78;;;2.30;;
8564;SDS011;4320;51.498;6.556;2022-09-17T04:26:45;6.45;;;2.25;;
8564;SDS011;4320;51.498;6.556;2022-09-17T04:29:11;11.15;;;2.65;;
8564;SDS011;4320;51.498;6.556;2022-09-17T04:31:37;3.42;;;1.70;;
8564;SDS011;4320;51.498;6.556;2022-09-17T04:34:02;8.52;;;2.45;;
8564;SDS011;4320;51.498;6.556;2022-09-17T04:36:28;9.85;;;2.72;;
8564;SDS011;4320;51.498;6.556;2022-09-17T04:38:53;9.90;;;2.40;;
8564;SDS011;4320;51.498;6.556;2022-09-17T04:41:19;7.88;;;2.13;;
8564;SDS011;4320;51.498;6.556;2022-09-17T04:43:45;7.82;;;2.20;;
8564;SDS011;4320;51.498;6.556;2022-09-17T04:46:10;11.32;;;2.40;;
8564;SDS011;4320;51.498;6.556;2022-09-17T04:48:38;9.38;;;3.08;;
8564;SDS011;4320;51.498;6.556;2022-09-17T04:51:03;8.85;;;2.58;;
8564;SDS011;4320;51.498;6.556;2022-09-17T04:53:29;10.90;;;2.22;;
8564;SDS011;4320;51.498;6.556;2022-09-17T04:55:55;10.70;;;2.15;;
8564;SDS011;4320;51.498;6.556;2022-09-17T04:58:20;10.77;;;2.72;;
8564;SDS011;4320;51.498;6.556;2022-09-17T05:00:46;6.70;;;2.00;;
8564;SDS011;4320;51.498;6.556;2022-09-17T05:03:12;4.75;;;2.03;;
8564;SDS011;4320;51.498;6.556;2022-09-17T05:05:38;8.68;;;2.10;;
8564;SDS011;4320;51.498;6.556;2022-09-17T05:08:03;5.93;;;1.58;;
8564;SDS011;4320;51.498;6.556;2022-09-17T05:10:29;7.45;;;2.53;;
8564;SDS011;4320;51.498;6.556;2022-09-17T05:12:55;8.68;;;2.25;;
8564;SDS011;4320;51.498;6.556;2022-09-17T05:15:21;5.70;;;2.08;;
8564;SDS011;4320;51.498;6.556;2022-09-17T05:17:48;5.75;;;2.42;;
8564;SDS011;4320;51.498;6.556;2022-09-17T05:20:14;13.15;;;2.60;;
8564;SDS011;4320;51.498;6.556;2022-09-17T05:22:44;7.35;;;2.15;;
8564;SDS011;4320;51.498;6.556;2022-09-17T05:25:16;12.57;;;2.17;;
8564;SDS011;4320;51.498;6.556;2022-09-17T05:27:43;11.18;;;2.88;;
8564;SDS011;4320;51.498;6.556;2022-09-17T05:30:09;6.85;;;2.33;;
8564;SDS011;4320;51.498;6.556;2022-09-17T05:32:36;8.90;;;2.15;;
8564;SDS011;4320;51.498;6.556;2022-09-17T05:35:02;10.45;;;2.38;;
8564;SDS011;4320;51.498;6.556;2022-09-17T05:37:28;7.35;;;2.25;;
8564;SDS011;4320;51.498;6.556;2022-09-17T05:39:54;8.63;;;2.47;;
8564;SDS011;4320;51.498;6.556;2022-09-17T05:42:19;6.28;;;1.77;;
8564;SDS011;4320;51.498;6.556;2022-09-17T05:44:45;6.78;;;1.70;;
8564;SDS011;4320;51.498;6.556;2022-09-17T05:47:11;7.68;;;2.33;;
8564;SDS011;4320;51.498;6.556;2022-09-17T05:49:36;7.65;;;2.35;;
8564;SDS011;4320;51.498;6.556;2022-09-17T05:52:02;7.78;;;2.17;;
8564;SDS011;4320;51.498;6.556;2022-09-17T05:54:28;8.80;;;2.05;;
8564;SDS011;4320;51.498;6.556;2022-09-17T05:56:54;7.50;;;2.30;;
8564;SDS011;4320;51.498;6.556;2022-09-17T05:59:20;4.72;;;1.83;;
8564;SDS011;4320;51.498;6.556;2022-09-17T06:01:46;7.93;;;2.40;;
8564;SDS011;4320;51.498;6.556;2022-09-17T06:04:12;9.80;;;2.00;;
8564;SDS011;4320;51.498;6.556;2022-09-17T06:06:38;7.22;;;2.03;;
8564;SDS011;4320;51.498;6.556;2022-09-17T06:09:05;12.00;;;2.70;;
8564;SDS011;4320;51.498;6.556;2022-09-17T06:11:35;6.95;;;2.28;;
8564;SDS011;4320;51.498;6.556;2022-09-17T06:14:01;14.80;;;2.28;;
8564;SDS011;4320;51.498;6.556;2022-09-17T06:16:27;14.23;;;1.83;;
8564;SDS011;4320;51.498;6.556;2022-09-17T06:18:53;9.57;;;2.40;;
8564;SDS011;4320;51.498;6.556;2022-09-17T06:21:19;8.32;;;2.50;;
8564;SDS011;4320;51.498;6.556;2022-09-17T06:23:48;7.30;;;2.08;;
8564;SDS011;4320;51.498;6.556;2022-09-17T06:26:15;10.23;;;1.90;;
8564;SDS011;4320;51.498;6.556;2022-09-17T06:28:41;8.00;;;2.25;;
8564;SDS011;4320;51.498;6.556;2022-09-17T06:31:07;7.72;;;2.20;;
8564;SDS011;4320;51.498;6.556;2022-09-17T06:33:33;9.35;;;2.10;;
8564;SDS011;4320;51.498;6.556;2022-09-17T06:36:09;9.32;;;1.90;;
8564;SDS011;4320;51.498;6.556;2022-09-17T06:38:36;8.88;;;2.10;;
8564;SDS011;4320;51.498;6.556;2022-09-17T06:41:02;7.55;;;2.05;;
8564;SDS011;4320;51.498;6.556;2022-09-17T06:43:28;8.05;;;2.03;;
8564;SDS011;4320;51.498;6.556;2022-09-17T06:46:01;5.68;;;1.98;;
8564;SDS011;4320;51.498;6.556;2022-09-17T06:48:29;8.60;;;2.20;;
8564;SDS011;4320;51.498;6.556;2022-09-17T06:51:02;7.30;;;2.22;;
8564;SDS011;4320;51.498;6.556;2022-09-17T06:53:30;4.15;;;1.70;;
8564;SDS011;4320;51.498;6.556;2022-09-17T06:55:56;6.88;;;1.95;;
8564;SDS011;4320;51.498;6.556;2022-09-17T06:58:23;8.13;;;2.17;;
8564;SDS011;4320;51.498;6.556;2022-09-17T07:00:49;4.55;;;1.70;;
8564;SDS011;4320;51.498;6.556;2022-09-17T07:03:15;5.22;;;1.90;;
8564;SDS011;4320;51.498;6.556;2022-09-17T07:05:42;8.20;;;2.25;;
8564;SDS011;4320;51.498;6.556;2022-09-17T07:08:09;7.03;;;2.00;;
8564;SDS011;4320;51.498;6.556;2022-09-17T07:10:35;8.45;;;1.70;;
8564;SDS011;4320;51.498;6.556;2022-09-17T07:13:01;7.10;;;2.00;;
8564;SDS011;4320;51.498;6.556;2022-09-17T07:15:26;5.88;;;1.73;;
8564;SDS011;4320;51.498;6.556;2022-09-17T07:17:52;4.72;;;1.88;;
8564;SDS011;4320;51.498;6.556;2022-09-17T07:20:18;7.43;;;1.85;;
8564;SDS011;4320;51.498;6.556;2022-09-17T07:22:43;9.52;;;2.20;;
8564;SDS011;4320;51.498;6.556;2022-09-17T07:25:09;4.80;;;1.83;;
8564;SDS011;4320;51.498;6.556;2022-09-17T07:27:35;6.88;;;2.10;;
8564;SDS011;4320;51.498;6.556;2022-09-17T07:30:01;5.97;;;1.92;;
8564;SDS011;4320;51.498;6.556;2022-09-17T07:32:30;7.68;;;2.13;;
8564;SDS011;4320;51.498;6.556;2022-09-17T07:34:56;7.45;;;2.10;;
8564;SDS011;4320;51.498;6.556;2022-09-17T07:37:22;5.30;;;1.98;;
8564;SDS011;4320;51.498;6.556;2022-09-17T07:39:47;6.00;;;1.80;;
8564;SDS011;4320;51.498;6.556;2022-09-17T07:42:13;5.57;;;2.22;;
8564;SDS011;4320;51.498;6.556;2022-09-17T07:44:39;6.38;;;1.63;;
8564;SDS011;4320;51.498;6.556;2022-09-17T07:47:04;4.93;;;1.60;;
8564;SDS011;4320;51.498;6.556;2022-09-17T07:49:30;4.95;;;1.80;;
8564;SDS011;4320;51.498;6.556;2022-09-17T07:51:56;6.60;;;1.83;;
8564;SDS011;4320;51.498;6.556;2022-09-17T07:54:22;3.80;;;1.83;;
8564;SDS011;4320;51.498;6.556;2022-09-17T07:56:47;4.95;;;1.50;;
8564;SDS011;4320;51.498;6.556;2022-09-17T07:59:13;4.75;;;1.73;;
8564;SDS011;4320;51.498;6.556;2022-09-17T08:01:38;6.50;;;2.28;;
8564;SDS011;4320;51.498;6.556;2022-09-17T08:04:04;4.95;;;1.70;;
8564;SDS011;4320;51.498;6.556;2022-09-17T08:06:31;5.78;;;1.90;;
8564;SDS011;4320;51.498;6.556;2022-09-17T08:09:01;5.03;;;1.65;;
8564;SDS011;4320;51.498;6.556;2022-09-17T08:11:28;4.32;;;1.55;;
8564;SDS011;4320;51.498;6.556;2022-09-17T08:13:55;4.00;;;1.50;;
8564;SDS011;4320;51.498;6.556;2022-09-17T08:16:21;6.03;;;2.05;;
8564;SDS011;4320;51.498;6.556;2022-09-17T08:18:48;5.38;;;1.80;;
8564;SDS011;4320;51.498;6.556;2022-09-17T08:21:18;4.35;;;1.55;;
8564;SDS011;4320;51.498;6.556;2022-09-17T08:23:44;5.85;;;1.48;;
8564;SDS011;4320;51.498;6.556;2022-09-17T08:26:16;7.47;;;1.55;;
8564;SDS011;4320;51.498;6.556;2022-09-17T08:28:53;4.00;;;1.50;;
8564;SDS011;4320;51.498;6.556;2022-09-17T08:31:20;8.27;;;2.20;;
8564;SDS011;4320;51.498;6.556;2022-09-17T08:33:50;4.57;;;1.70;;
8564;SDS011;4320;51.498;6.556;2022-09-17T08:36:17;9.23;;;2.03;;
8564;SDS011;4320;51.498;6.556;2022-09-17T08:38:43;6.07;;;1.77;;
8564;SDS011;4320;51.498;6.556;2022-09-17T08:46:19;6.03;;;1.67;;
8564;SDS011;4320;51.498;6.556;2022-09-17T08:56:56;6.13;;;1.80;;
8564;SDS011;4320;51.498;6.556;2022-09-17T09:02:29;4.75;;;1.50;;
8564;SDS011;4320;51.498;6.556;2022-09-17T09:05:23;5.68;;;1.75;;
8564;SDS011;4320;51.498;6.556;2022-09-17T09:07:55;4.75;;;1.60;;
8564;SDS011;4320;51.498;6.556;2022-09-17T09:10:32;6.38;;;1.95;;
8564;SDS011;4320;51.498;6.556;2022-09-17T09:13:08;4.63;;;1.75;;
8564;SDS011;4320;51.498;6.556;2022-09-17T09:15:42;4.00;;;1.38;;
8564;SDS011;4320;51.498;6.556;2022-09-17T09:18:18;5.50;;;1.42;;
8564;SDS011;4320;51.498;6.556;2022-09-17T09:20:49;5.75;;;1.30;;
8564;SDS011;4320;51.498;6.556;2022-09-17T09:25:56;2.63;;;1.30;;
8564;SDS011;4320;51.498;6.556;2022-09-17T09:34:33;3.90;;;1.27;;
8564;SDS011;4320;51.498;6.556;2022-09-17T09:37:48;4.22;;;1.40;;
8564;SDS011;4320;51.498;6.556;2022-09-17T09:39:56;5.28;;;1.73;;
8564;SDS011;4320;51.498;6.556;2022-09-17T09:42:43;3.90;;;1.25;;
8564;SDS011;4320;51.498;6.556;2022-09-17T09:45:25;3.67;;;1.40;;
8564;SDS011;4320;51.498;6.556;2022-09-17T09:47:53;6.63;;;1.75;;
8564;SDS011;4320;51.498;6.556;2022-09-17T09:58:21;4.10;;;1.50;;
8564;SDS011;4320;51.498;6.556;2022-09-17T10:00:52;4.72;;;1.67;;
8564;SDS011;4320;51.498;6.556;2022-09-17T10:05:52;3.58;;;1.35;;
8564;SDS011;4320;51.498;6.556;2022-09-17T10:08:25;3.72;;;1.10;;
8564;SDS011;4320;51.498;6.556;2022-09-17T10:10:59;2.88;;;1.77;;
8564;SDS011;4320;51.498;6.556;2022-09-17T10:13:25;4.43;;;1.20;;
8564;SDS011;4320;51.498;6.556;2022-09-17T10:15:53;3.53;;;1.27;;
8564;SDS011;4320;51.498;6.556;2022-09-17T10:18:22;4.22;;;1.88;;
8564;SDS011;4320;51.498;6.556;2022-09-17T10:20:53;6.78;;;1.48;;
8564;SDS011;4320;51.498;6.556;2022-09-17T10:23:21;4.97;;;1.88;;
8564;SDS011;4320;51.498;6.556;2022-09-17T10:25:48;6.53;;;1.60;;
8564;SDS011;4320;51.498;6.556;2022-09-17T10:28:23;7.43;;;1.80;;
8564;SDS011;4320;51.498;6.556;2022-09-17T10:31:00;4.55;;;1.60;;
8564;SDS011;4320;51.498;6.556;2022-09-17T10:33:34;3.25;;;1.63;;
8564;SDS011;4320;51.498;6.556;2022-09-17T10:36:12;3.95;;;1.50;;
8564;SDS011;4320;51.498;6.556;2022-09-17T10:38:39;4.45;;;1.40;;
8564;SDS011;4320;51.498;6.556;2022-09-17T10:41:19;3.13;;;0.90;;
8564;SDS011;4320;51.498;6.556;2022-09-17T10:43:46;2.67;;;1.30;;
8564;SDS011;4320;51.498;6.556;2022-09-17T10:46:14;2.75;;;1.00;;
8564;SDS011;4320;51.498;6.556;2022-09-17T10:48:43;5.30;;;1.55;;
8564;SDS011;4320;51.498;6.556;2022-09-17T10:51:29;3.35;;;1.52;;
8564;SDS011;4320;51.498;6.556;2022-09-17T10:56:36;2.05;;;0.93;;
8564;SDS011;4320;51.498;6.556;2022-09-17T11:02:04;2.72;;;1.08;;
8564;SDS011;4320;51.498;6.556;2022-09-17T11:18:14;2.33;;;1.00;;
8564;SDS011;4320;51.498;6.556;2022-09-17T11:34:26;1.52;;;0.90;;
8564;SDS011;4320;51.498;6.556;2022-09-17T11:42:41;3.42;;;1.15;;
8564;SDS011;4320;51.498;6.556;2022-09-17T11:45:24;3.20;;;1.25;;
8564;SDS011;4320;51.498;6.556;2022-09-17T11:48:14;3.25;;;1.00;;
8564;SDS011;4320;51.498;6.556;2022-09-17T11:50:45;3.85;;;1.15;;
8564;SDS011;4320;51.498;6.556;2022-09-17T11:56:00;2.80;;;1.20;;
8564;SDS011;4320;51.498;6.556;2022-09-17T11:58:45;2.50;;;0.90;;
8564;SDS011;4320;51.498;6.556;2022-09-17T12:01:17;3.78;;;1.60;;
8564;SDS011;4320;51.498;6.556;2022-09-17T12:04:00;2.88;;;1.35;;
8564;SDS011;4320;51.498;6.556;2022-09-17T12:09:32;3.33;;;1.25;;
8564;SDS011;4320;51.498;6.556;2022-09-17T12:12:23;2.90;;;1.20;;
8564;SDS011;4320;51.498;6.556;2022-09-17T12:17:43;2.13;;;1.05;;
8564;SDS011;4320;51.498;6.556;2022-09-17T12:20:46;1.75;;;1.00;;
8564;SDS011;4320;51.498;6.556;2022-09-17T12:23:09;2.00;;;1.00;;
8564;SDS011;4320;51.498;6.556;2022-09-17T12:25:41;2.60;;;1.08;;
8564;SDS011;4320;51.498;6.556;2022-09-17T12:28:25;2.47;;;0.90;;
8564;SDS011;4320;51.498;6.556;2022-09-17T12:31:04;2.58;;;1.02;;
8564;SDS011;4320;51.498;6.556;2022-09-17T12:34:17;2.20;;;0.98;;
8564;SDS011;4320;51.498;6.556;2022-09-17T12:36:43;4.22;;;1.45;;
8564;SDS011;4320;51.498;6.556;2022-09-17T12:42:17;3.55;;;1.58;;
8564;SDS011;4320;51.498;6.556;2022-09-17T12:45:11;3.03;;;1.10;;
8564;SDS011;4320;51.498;6.556;2022-09-17T12:50:55;2.67;;;1.00;;
8564;SDS011;4320;51.498;6.556;2022-09-17T12:59:15;3.97;;;1.15;;
8564;SDS011;4320;51.498;6.556;2022-09-17T13:07:34;2.28;;;1.02;;
8564;SDS011;4320;51.498;6.556;2022-09-17T13:10:32;2.55;;;1.20;;
8564;SDS011;4320;51.498;6.556;2022-09-17T13:13:26;2.60;;;1.40;;
8564;SDS011;4320;51.498;6.556;2022-09-17T13:21:31;2.72;;;1.00;;
8564;SDS011;4320;51.498;6.556;2022-09-17T13:24:13;6.22;;;1.63;;
8564;SDS011;4320;51.498;6.556;2022-09-17T13:26:43;4.65;;;1.40;;
8564;SDS011;4320;51.498;6.556;2022-09-17T13:29:10;3.80;;;1.20;;
8564;SDS011;4320;51.498;6.556;2022-09-17T13:36:48;4.40;;;1.23;;
8564;SDS011;4320;51.498;6.556;2022-09-17T13:42:22;3.90;;;1.15;;
8564;SDS011;4320;51.498;6.556;2022-09-17T13:45:10;5.70;;;1.45;;
8564;SDS011;4320;51.498;6.556;2022-09-17T13:50:25;6.60;;;1.60;;
8564;SDS011;4320;51.498;6.556;2022-09-17T13:55:50;7.03;;;2.08;;
8564;SDS011;4320;51.498;6.556;2022-09-17T13:58:24;7.82;;;1.90;;
8564;SDS011;4320;51.498;6.556;2022-09-17T14:01:02;9.65;;;1.75;;
8564;SDS011;4320;51.498;6.556;2022-09-17T14:16:22;4.72;;;1.83;;
8564;SDS011;4320;51.498;6.556;2022-09-17T14:18:57;8.07;;;2.05;;
8564;SDS011;4320;51.498;6.556;2022-09-17T14:21:24;9.20;;;1.73;;
8564;SDS011;4320;51.498;6.556;2022-09-17T14:24:01;2.55;;;1.52;;
8564;SDS011;4320;51.498;6.556;2022-09-17T14:26:43;4.22;;;1.70;;
8564;SDS011;4320;51.498;6.556;2022-09-17T14:32:21;6.68;;;1.85;;
8564;SDS011;4320;51.498;6.556;2022-09-17T14:35:01;5.05;;;2.05;;
8564;SDS011;4320;51.498;6.556;2022-09-17T14:37:37;3.75;;;1.92;;
8564;SDS011;4320;51.498;6.556;2022-09-17T14:40:13;4.65;;;1.73;;
8564;SDS011;4320;51.498;6.556;2022-09-17T14:42:42;4.03;;;1.40;;
8564;SDS011;4320;51.498;6.556;2022-09-17T14:45:20;2.95;;;1.00;;
8564;SDS011;4320;51.498;6.556;2022-09-17T14:48:15;3.03;;;1.40;;
8564;SDS011;4320;51.498;6.556;2022-09-17T14:56:29;5.05;;;1.48;;
8564;SDS011;4320;51.498;6.556;2022-09-17T14:59:00;7.50;;;1.35;;
8564;SDS011;4320;51.498;6.556;2022-09-17T15:01:29;5.97;;;1.55;;
8564;SDS011;4320;51.498;6.556;2022-09-17T15:06:39;3.05;;;1.50;;
8564;SDS011;4320;51.498;6.556;2022-09-17T15:09:12;5.28;;;1.25;;
8564;SDS011;4320;51.498;6.556;2022-09-17T15:11:40;3.63;;;1.20;;
8564;SDS011;4320;51.498;6.556;2022-09-17T15:14:19;4.40;;;1.10;;
8564;SDS011;4320;51.498;6.556;2022-09-17T15:16:48;4.55;;;1.55;;
8564;SDS011;4320;51.498;6.556;2022-09-17T15:19:24;4.07;;;1.13;;
8564;SDS011;4320;51.498;6.556;2022-09-17T15:21:57;2.63;;;1.10;;
8564;SDS011;4320;51.498;6.556;2022-09-17T15:27:16;2.97;;;1.40;;
8564;SDS011;4320;51.498;6.556;2022-09-17T15:29:48;6.57;;;1.60;;
8564;SDS011;4320;51.498;6.556;2022-09-17T15:32:18;3.13;;;1.42;;
8564;SDS011;4320;51.498;6.556;2022-09-17T15:34:44;4.45;;;1.75;;
8564;SDS011;4320;51.498;6.556;2022-09-17T15:37:17;5.20;;;1.50;;
8564;SDS011;4320;51.498;6.556;2022-09-17T15:39:49;3.60;;;1.30;;
8564;SDS011;4320;51.498;6.556;2022-09-17T15:42:23;2.83;;;1.30;;
8564;SDS011;4320;51.498;6.556;2022-09-17T15:44:52;7.55;;;1.60;;
8564;SDS011;4320;51.498;6.556;2022-09-17T15:47:34;3.38;;;1.60;;
8564;SDS011;4320;51.498;6.556;2022-09-17T15:50:14;4.32;;;1.60;;
8564;SDS011;4320;51.498;6.556;2022-09-17T15:52:43;3.75;;;1.50;;
8564;SDS011;4320;51.498;6.556;2022-09-17T15:57:59;4.85;;;1.73;;
8564;SDS011;4320;51.498;6.556;2022-09-17T16:00:28;5.18;;;1.77;;
8564;SDS011;4320;51.498;6.556;2022-09-17T16:02:54;4.75;;;1.27;;
8564;SDS011;4320;51.498;6.556;2022-09-17T16:07:48;1.60;;;1.10;;
8564;SDS011;4320;51.498;6.556;2022-09-17T16:10:14;2.05;;;1.20;;
8564;SDS011;4320;51.498;6.556;2022-09-17T16:12:40;2.40;;;1.33;;
8564;SDS011;4320;51.498;6.556;2022-09-17T16:15:06;4.15;;;1.58;;
8564;SDS011;4320;51.498;6.556;2022-09-17T16:22:48;4.38;;;1.45;;
8564;SDS011;4320;51.498;6.556;2022-09-17T16:25:15;6.55;;;2.42;;
8564;SDS011;4320;51.498;6.556;2022-09-17T16:30:12;4.25;;;1.48;;
8564;SDS011;4320;51.498;6.556;2022-09-17T16:32:39;3.75;;;1.58;;
8564;SDS011;4320;51.498;6.556;2022-09-17T16:35:04;4.30;;;1.60;;
8564;SDS011;4320;51.498;6.556;2022-09-17T16:37:30;3.17;;;1.70;;
8564;SDS011;4320;51.498;6.556;2022-09-17T16:39:56;6.40;;;1.85;;
8564;SDS011;4320;51.498;6.556;2022-09-17T16:42:22;4.15;;;1.80;;
8564;SDS011;4320;51.498;6.556;2022-09-17T16:44:48;4.90;;;2.35;;
8564;SDS011;4320;51.498;6.556;2022-09-17T16:47:13;5.40;;;2.50;;
8564;SDS011;4320;51.498;6.556;2022-09-17T16:49:39;6.47;;;2.17;;
8564;SDS011;4320;51.498;6.556;2022-09-17T16:52:05;9.23;;;1.83;;
8564;SDS011;4320;51.498;6.556;2022-09-17T16:54:30;6.82;;;2.15;;
8564;SDS011;4320;51.498;6.556;2022-09-17T16:56:56;4.63;;;1.58;;
8564;SDS011;4320;51.498;6.556;2022-09-17T16:59:21;3.97;;;1.33;;
8564;SDS011;4320;51.498;6.556;2022-09-17T17:01:47;4.95;;;1.75;;
8564;SDS011;4320;51.498;6.556;2022-09-17T17:04:13;5.82;;;1.85;;
8564;SDS011;4320;51.498;6.556;2022-09-17T17:06:40;5.03;;;1.92;;
8564;SDS011;4320;51.498;6.556;2022-09-17T17:09:06;7.10;;;1.60;;
8564;SDS011;4320;51.498;6.556;2022-09-17T17:11:31;5.80;;;2.10;;
8564;SDS011;4320;51.498;6.556;2022-09-17T17:13:57;8.30;;;1.80;;
8564;SDS011;4320;51.498;6.556;2022-09-17T17:16:25;6.68;;;2.20;;
8564;SDS011;4320;51.498;6.556;2022-09-17T17:18:50;5.78;;;2.22;;
8564;SDS011;4320;51.498;6.556;2022-09-17T17:21:17;6.43;;;2.25;;
8564;SDS011;4320;51.498;6.556;2022-09-17T17:23:43;8.52;;;2.42;;
8564;SDS011;4320;51.498;6.556;2022-09-17T17:26:11;7.97;;;2.00;;
8564;SDS011;4320;51.498;6.556;2022-09-17T17:28:36;8.63;;;2.78;;
8564;SDS011;4320;51.498;6.556;2022-09-17T17:31:02;8.43;;;2.30;;
8564;SDS011;4320;51.498;6.556;2022-09-17T17:33:28;5.90;;;2.25;;
8564;SDS011;4320;51.498;6.556;2022-09-17T17:35:54;10.02;;;2.60;;
8564;SDS011;4320;51.498;6.556;2022-09-17T17:38:19;6.88;;;2.67;;
8564;SDS011;4320;51.498;6.556;2022-09-17T17:40:45;5.88;;;2.03;;
8564;SDS011;4320;51.498;6.556;2022-09-17T17:43:11;9.60;;;2.22;;
8564;SDS011;4320;51.498;6.556;2022-09-17T17:45:40;6.63;;;2.17;;
8564;SDS011;4320;51.498;6.556;2022-09-17T17:48:05;6.63;;;2.47;;
8564;SDS011;4320;51.498;6.556;2022-09-17T17:50:32;8.45;;;2.20;;
8564;SDS011;4320;51.498;6.556;2022-09-17T17:52:57;8.32;;;2.40;;
8564;SDS011;4320;51.498;6.556;2022-09-17T17:55:23;6.95;;;2.17;;
8564;SDS011;4320;51.498;6.556;2022-09-17T17:57:53;7.03;;;2.10;;
8564;SDS011;4320;51.498;6.556;2022-09-17T18:00:22;7.10;;;1.85;;
8564;SDS011;4320;51.498;6.556;2022-09-17T18:02:49;7.63;;;2.65;;
8564;SDS011;4320;51.498;6.556;2022-09-17T18:05:15;7.20;;;2.17;;
8564;SDS011;4320;51.498;6.556;2022-09-17T18:07:40;4.22;;;2.15;;
8564;SDS011;4320;51.498;6.556;2022-09-17T18:10:06;4.78;;;2.13;;
8564;SDS011;4320;51.498;6.556;2022-09-17T18:12:32;8.63;;;1.75;;
8564;SDS011;4320;51.498;6.556;2022-09-17T18:14:58;5.72;;;1.80;;
8564;SDS011;4320;51.498;6.556;2022-09-17T18:17:23;6.03;;;1.65;;
8564;SDS011;4320;51.498;6.556;2022-09-17T18:19:49;3.97;;;1.73;;
8564;SDS011;4320;51.498;6.556;2022-09-17T18:22:16;11.27;;;1.92;;
8564;SDS011;4320;51.498;6.556;2022-09-17T18:24:42;8.00;;;1.88;;
8564;SDS011;4320;51.498;6.556;2022-09-17T18:27:08;7.75;;;2.50;;
8564;SDS011;4320;51.498;6.556;2022-09-17T18:29:33;10.13;;;2.05;;
8564;SDS011;4320;51.498;6.556;2022-09-17T18:31:59;5.60;;;1.80;;
8564;SDS011;4320;51.498;6.556;2022-09-17T18:34:25;9.65;;;2.20;;
8564;SDS011;4320;51.498;6.556;2022-09-17T18:36:50;8.18;;;2.38;;
8564;SDS011;4320;51.498;6.556;2022-09-17T18:39:16;8.45;;;3.00;;
8564;SDS011;4320;51.498;6.556;2022-09-17T18:41:44;6.07;;;2.10;;
8564;SDS011;4320;51.498;6.556;2022-09-17T18:44:10;7.30;;;2.00;;
8564;SDS011;4320;51.498;6.556;2022-09-17T18:46:36;7.90;;;2.47;;
8564;SDS011;4320;51.498;6.556;2022-09-17T18:49:03;7.75;;;2.10;;
8564;SDS011;4320;51.498;6.556;2022-09-17T18:51:29;7.53;;;2.00;;
8564;SDS011;4320;51.498;6.556;2022-09-17T18:53:56;8.70;;;2.30;;
8564;SDS011;4320;51.498;6.556;2022-09-17T18:56:24;5.93;;;1.83;;